sensor_id;sensor_type;location;lat;lon;timestamp;pressure;altitude;pressure_sealevel;temperature;humidity
6136;BME280;24008;42.664;23.372;2023-07-31T00:00:13;94425.56;;;21.40;76.22
6136;BME280;24008;42.664;23.372;2023-07-31T00:02:41;94427.94;;;21.41;75.79
6136;BME280;24008;42.664;23.372;2023-07-31T00:05:09;94429.53;;;21.42;76.08
6136;BME280;24008;42.664;23.372;2023-07-31T00:07:36;94431.53;;;21.40;76.26
6136;BME280;24008;42.664;23.372;2023-07-31T00:10:03;94433.13;;;21.41;76.45
6136;BME280;24008;42.664;23.372;2023-07-31T00:12:30;94346.06;;;20.82;76.98
6136;BME280;24008;42.664;23.372;2023-07-31T00:14:57;94408.56;;;21.19;77.23
6136;BME280;24008;42.664;23.372;2023-07-31T00:17:23;94412.53;;;21.22;77.14
6136;BME280;24008;42.664;23.372;2023-07-31T00:19:50;94424.53;;;21.23;77.47
6136;BME280;24008;42.664;23.372;2023-07-31T00:22:18;94424.88;;;21.26;77.62
6136;BME280;24008;42.664;23.372;2023-07-31T00:24:45;94436.81;;;21.34;77.44
6136;BME280;24008;42.664;23.372;2023-07-31T00:27:12;94424.63;;;21.34;77.49
6136;BME280;24008;42.664;23.372;2023-07-31T00:29:39;94417.25;;;21.31;77.59
6136;BME280;24008;42.664;23.372;2023-07-31T00:32:06;94424.44;;;21.29;77.50
6136;BME280;24008;42.664;23.372;2023-07-31T00:34:33;94406.53;;;21.21;77.26
6136;BME280;24008;42.664;23.372;2023-07-31T00:37:00;94365.88;;;21.02;77.78
6136;BME280;24008;42.664;23.372;2023-07-31T00:39:30;94379.63;;;21.09;78.20
6136;BME280;24008;42.664;23.372;2023-07-31T00:41:57;94400.47;;;21.27;78.45
6136;BME280;24008;42.664;23.372;2023-07-31T00:44:23;94384.63;;;21.10;79.04
6136;BME280;24008;42.664;23.372;2023-07-31T00:46:50;94337.56;;;20.75;79.79
6136;BME280;24008;42.664;23.372;2023-07-31T00:49:17;94410.16;;;21.13;80.29
6136;BME280;24008;42.664;23.372;2023-07-31T00:51:44;94408.69;;;20.99;80.79
6136;BME280;24008;42.664;23.372;2023-07-31T00:54:11;94410.72;;;20.97;81.65
6136;BME280;24008;42.664;23.372;2023-07-31T00:56:40;94414.53;;;20.95;82.37
6136;BME280;24008;42.664;23.372;2023-07-31T00:59:07;94387.25;;;20.79;83.05
6136;BME280;24008;42.664;23.372;2023-07-31T01:01:34;94387.31;;;20.72;83.85
6136;BME280;24008;42.664;23.372;2023-07-31T01:04:00;94374.16;;;20.67;84.73
6136;BME280;24008;42.664;23.372;2023-07-31T01:06:33;94398.88;;;20.76;85.14
6136;BME280;24008;42.664;23.372;2023-07-31T01:09:04;94389.50;;;20.75;86.05
6136;BME280;24008;42.664;23.372;2023-07-31T01:11:35;94357.94;;;20.47;85.96
6136;BME280;24008;42.664;23.372;2023-07-31T01:14:06;94365.47;;;20.55;86.29
6136;BME280;24008;42.664;23.372;2023-07-31T01:16:33;94372.63;;;20.60;86.80
6136;BME280;24008;42.664;23.372;2023-07-31T01:18:59;94367.13;;;20.43;87.01
6136;BME280;24008;42.664;23.372;2023-07-31T01:21:41;94375.84;;;20.55;87.50
6136;BME280;24008;42.664;23.372;2023-07-31T01:24:28;94378.66;;;20.54;88.30
6136;BME280;24008;42.664;23.372;2023-07-31T01:27:04;94377.50;;;20.49;88.81
6136;BME280;24008;42.664;23.372;2023-07-31T01:29:38;94371.13;;;20.45;89.19
6136;BME280;24008;42.664;23.372;2023-07-31T01:32:07;94374.94;;;20.43;89.28
6136;BME280;24008;42.664;23.372;2023-07-31T01:34:36;94375.56;;;20.38;89.89
6136;BME280;24008;42.664;23.372;2023-07-31T01:37:04;94345.88;;;20.21;90.20
6136;BME280;24008;42.664;23.372;2023-07-31T01:39:31;94370.38;;;20.32;90.67
6136;BME280;24008;42.664;23.372;2023-07-31T01:41:59;94300.06;;;19.77;90.95
6136;BME280;24008;42.664;23.372;2023-07-31T01:44:25;94375.81;;;20.24;91.64
6136;BME280;24008;42.664;23.372;2023-07-31T01:46:52;94370.03;;;20.22;91.97
6136;BME280;24008;42.664;23.372;2023-07-31T01:49:19;94326.28;;;19.94;92.42
6136;BME280;24008;42.664;23.372;2023-07-31T01:51:45;94316.34;;;19.84;92.84
6136;BME280;24008;42.664;23.372;2023-07-31T01:54:12;94368.28;;;20.16;93.57
6136;BME280;24008;42.664;23.372;2023-07-31T01:56:39;94360.13;;;20.05;93.69
6136;BME280;24008;42.664;23.372;2023-07-31T01:59:07;94145.03;;;18.65;94.16
6136;BME280;24008;42.664;23.372;2023-07-31T02:01:34;94345.47;;;19.86;94.81
6136;BME280;24008;42.664;23.372;2023-07-31T02:04:00;94382.13;;;20.03;95.46
6136;BME280;24008;42.664;23.372;2023-07-31T02:06:28;94379.75;;;20.01;96.31
6136;BME280;24008;42.664;23.372;2023-07-31T02:08:54;94388.31;;;20.02;96.48
6136;BME280;24008;42.664;23.372;2023-07-31T02:11:21;94378.16;;;20.00;97.12
6136;BME280;24008;42.664;23.372;2023-07-31T02:13:47;94389.72;;;19.98;97.23
6136;BME280;24008;42.664;23.372;2023-07-31T02:16:16;94390.94;;;19.95;97.79
6136;BME280;24008;42.664;23.372;2023-07-31T02:18:42;94259.69;;;18.92;98.44
6136;BME280;24008;42.664;23.372;2023-07-31T02:21:09;94202.78;;;18.65;98.91
6136;BME280;24008;42.664;23.372;2023-07-31T02:23:36;94382.41;;;19.82;99.53
6136;BME280;24008;42.664;23.372;2023-07-31T02:26:02;94399.34;;;19.91;99.87
6136;BME280;24008;42.664;23.372;2023-07-31T02:28:29;94396.94;;;19.89;100.00
6136;BME280;24008;42.664;23.372;2023-07-31T02:30:56;94263.63;;;19.01;100.00
6136;BME280;24008;42.664;23.372;2023-07-31T02:33:24;94398.53;;;19.90;100.00
6136;BME280;24008;42.664;23.372;2023-07-31T02:35:51;94284.09;;;19.22;100.00
6136;BME280;24008;42.664;23.372;2023-07-31T02:38:18;94379.00;;;19.81;100.00
6136;BME280;24008;42.664;23.372;2023-07-31T02:40:44;94391.75;;;19.89;100.00
6136;BME280;24008;42.664;23.372;2023-07-31T02:43:11;94363.09;;;19.71;100.00
6136;BME280;24008;42.664;23.372;2023-07-31T02:45:39;94389.75;;;19.91;100.00
6136;BME280;24008;42.664;23.372;2023-07-31T02:48:05;94377.81;;;19.84;100.00
6136;BME280;24008;42.664;23.372;2023-07-31T02:50:34;94404.50;;;19.97;100.00
6136;BME280;24008;42.664;23.372;2023-07-31T02:53:01;94397.31;;;19.99;100.00
6136;BME280;24008;42.664;23.372;2023-07-31T02:55:27;94391.72;;;19.96;100.00
6136;BME280;24008;42.664;23.372;2023-07-31T02:57:54;94405.84;;;20.06;100.00
6136;BME280;24008;42.664;23.372;2023-07-31T03:00:21;94384.34;;;19.93;100.00
6136;BME280;24008;42.664;23.372;2023-07-31T03:02:47;94409.63;;;20.10;100.00
6136;BME280;24008;42.664;23.372;2023-07-31T03:05:14;94387.88;;;20.05;99.71
6136;BME280;24008;42.664;23.372;2023-07-31T03:07:42;94390.47;;;20.11;99.11
6136;BME280;24008;42.664;23.372;2023-07-31T03:10:09;94417.19;;;20.12;98.05
6136;BME280;24008;42.664;23.372;2023-07-31T03:12:36;94367.34;;;20.03;97.37
6136;BME280;24008;42.664;23.372;2023-07-31T03:15:03;94396.19;;;20.27;96.99
6136;BME280;24008;42.664;23.372;2023-07-31T03:17:30;94415.31;;;20.39;96.55
6136;BME280;24008;42.664;23.372;2023-07-31T03:19:57;94418.06;;;20.44;96.18
6136;BME280;24008;42.664;23.372;2023-07-31T03:22:23;94372.44;;;20.17;95.33
6136;BME280;24008;42.664;23.372;2023-07-31T03:24:52;94427.03;;;20.48;95.20
6136;BME280;24008;42.664;23.372;2023-07-31T03:27:18;94423.44;;;20.49;94.90
6136;BME280;24008;42.664;23.372;2023-07-31T03:29:45;94425.03;;;20.50;95.03
6136;BME280;24008;42.664;23.372;2023-07-31T03:32:12;94387.94;;;20.30;95.00
6136;BME280;24008;42.664;23.372;2023-07-31T03:34:39;94420.19;;;20.54;94.79
6136;BME280;24008;42.664;23.372;2023-07-31T03:37:05;94429.38;;;20.56;94.94
6136;BME280;24008;42.664;23.372;2023-07-31T03:39:34;94414.25;;;20.46;95.00
6136;BME280;24008;42.664;23.372;2023-07-31T03:42:03;94412.50;;;20.40;95.26
6136;BME280;24008;42.664;23.372;2023-07-31T03:44:30;94427.78;;;20.55;95.28
6136;BME280;24008;42.664;23.372;2023-07-31T03:46:56;94423.19;;;20.57;95.08
6136;BME280;24008;42.664;23.372;2023-07-31T03:49:23;94390.94;;;20.40;94.68
6136;BME280;24008;42.664;23.372;2023-07-31T03:51:50;94424.50;;;20.66;94.65
6136;BME280;24008;42.664;23.372;2023-07-31T03:54:17;94438.66;;;20.70;94.13
6136;BME280;24008;42.664;23.372;2023-07-31T03:56:43;94423.06;;;20.77;93.28
6136;BME280;24008;42.664;23.372;2023-07-31T03:59:11;94405.31;;;20.67;92.61
6136;BME280;24008;42.664;23.372;2023-07-31T04:01:38;94425.28;;;20.73;91.80
6136;BME280;24008;42.664;23.372;2023-07-31T04:04:05;94425.59;;;20.83;91.04
6136;BME280;24008;42.664;23.372;2023-07-31T04:06:32;94419.53;;;20.90;90.06
6136;BME280;24008;42.664;23.372;2023-07-31T04:08:58;94439.22;;;21.04;89.65
6136;BME280;24008;42.664;23.372;2023-07-31T04:11:25;94447.03;;;21.04;89.57
6136;BME280;24008;42.664;23.372;2023-07-31T04:13:52;94448.47;;;21.00;89.61
6136;BME280;24008;42.664;23.372;2023-07-31T04:16:20;94443.09;;;20.95;89.55
6136;BME280;24008;42.664;23.372;2023-07-31T04:18:47;94438.78;;;20.82;89.98
6136;BME280;24008;42.664;23.372;2023-07-31T04:21:14;94451.38;;;20.85;89.90
6136;BME280;24008;42.664;23.372;2023-07-31T04:23:41;94416.56;;;20.61;90.44
6136;BME280;24008;42.664;23.372;2023-07-31T04:26:07;94446.38;;;20.83;90.48
6136;BME280;24008;42.664;23.372;2023-07-31T04:28:34;94445.97;;;20.87;90.33
6136;BME280;24008;42.664;23.372;2023-07-31T04:31:01;94450.38;;;20.86;89.81
6136;BME280;24008;42.664;23.372;2023-07-31T04:33:29;94447.56;;;20.88;89.78
6136;BME280;24008;42.664;23.372;2023-07-31T04:35:55;94438.00;;;20.81;89.66
6136;BME280;24008;42.664;23.372;2023-07-31T04:38:22;94460.28;;;20.96;89.27
6136;BME280;24008;42.664;23.372;2023-07-31T04:40:49;94455.25;;;21.01;89.06
6136;BME280;24008;42.664;23.372;2023-07-31T04:43:16;94453.19;;;21.09;88.45
6136;BME280;24008;42.664;23.372;2023-07-31T04:45:45;94463.31;;;21.17;88.24
6136;BME280;24008;42.664;23.372;2023-07-31T04:48:12;94452.09;;;21.24;87.34
6136;BME280;24008;42.664;23.372;2023-07-31T04:50:41;94428.59;;;21.12;86.39
6136;BME280;24008;42.664;23.372;2023-07-31T04:53:07;94449.22;;;21.32;86.15
6136;BME280;24008;42.664;23.372;2023-07-31T04:55:34;94455.22;;;21.32;85.70
6136;BME280;24008;42.664;23.372;2023-07-31T04:58:01;94408.63;;;21.06;85.75
6136;BME280;24008;42.664;23.372;2023-07-31T05:00:28;94358.66;;;20.85;85.15
6136;BME280;24008;42.664;23.372;2023-07-31T05:02:55;94458.19;;;21.61;84.57
6136;BME280;24008;42.664;23.372;2023-07-31T05:05:21;94453.56;;;21.81;83.26
6136;BME280;24008;42.664;23.372;2023-07-31T05:07:50;94451.84;;;22.30;81.88
6136;BME280;24008;42.664;23.372;2023-07-31T05:10:16;94443.41;;;23.17;77.66
6136;BME280;24008;42.664;23.372;2023-07-31T05:12:43;94423.16;;;23.54;73.35
6136;BME280;24008;42.664;23.372;2023-07-31T05:15:10;94446.69;;;23.83;71.28
6136;BME280;24008;42.664;23.372;2023-07-31T05:17:37;94439.91;;;23.58;71.44
6136;BME280;24008;42.664;23.372;2023-07-31T05:20:04;94446.47;;;23.49;72.41
6136;BME280;24008;42.664;23.372;2023-07-31T05:22:31;94437.97;;;23.30;73.04
6136;BME280;24008;42.664;23.372;2023-07-31T05:25:00;94430.22;;;23.12;72.89
6136;BME280;24008;42.664;23.372;2023-07-31T05:27:26;94439.22;;;23.28;72.46
6136;BME280;24008;42.664;23.372;2023-07-31T05:29:53;94440.91;;;23.34;72.45
6136;BME280;24008;42.664;23.372;2023-07-31T05:32:20;94420.38;;;23.38;71.61
6136;BME280;24008;42.664;23.372;2023-07-31T05:34:46;94422.41;;;23.47;71.08
6136;BME280;24008;42.664;23.372;2023-07-31T05:37:13;94444.09;;;23.83;69.86
6136;BME280;24008;42.664;23.372;2023-07-31T05:39:40;94433.22;;;23.74;69.19
6136;BME280;24008;42.664;23.372;2023-07-31T05:42:08;94418.38;;;23.51;69.54
6136;BME280;24008;42.664;23.372;2023-07-31T05:44:35;94438.31;;;23.57;69.71
6136;BME280;24008;42.664;23.372;2023-07-31T05:47:02;94444.31;;;23.46;70.17
6136;BME280;24008;42.664;23.372;2023-07-31T05:49:28;94447.50;;;23.60;70.28
6136;BME280;24008;42.664;23.372;2023-07-31T05:51:55;94423.78;;;23.85;69.08
6136;BME280;24008;42.664;23.372;2023-07-31T05:54:22;94446.34;;;24.99;66.20
6136;BME280;24008;42.664;23.372;2023-07-31T05:56:49;94451.69;;;25.93;60.99
6136;BME280;24008;42.664;23.372;2023-07-31T05:59:17;94448.84;;;25.78;60.76
6136;BME280;24008;42.664;23.372;2023-07-31T06:01:44;94457.28;;;25.63;59.70
6136;BME280;24008;42.664;23.372;2023-07-31T06:04:10;94461.56;;;25.53;60.08
6136;BME280;24008;42.664;23.372;2023-07-31T06:06:38;94392.59;;;24.75;60.48
6136;BME280;24008;42.664;23.372;2023-07-31T06:09:05;94470.22;;;24.91;61.33
6136;BME280;24008;42.664;23.372;2023-07-31T06:11:32;94466.06;;;24.62;62.65
6136;BME280;24008;42.664;23.372;2023-07-31T06:13:59;94263.94;;;23.14;63.68
6136;BME280;24008;42.664;23.372;2023-07-31T06:16:28;94456.09;;;24.75;62.95
6136;BME280;24008;42.664;23.372;2023-07-31T06:18:54;94461.56;;;25.69;58.72
6136;BME280;24008;42.664;23.372;2023-07-31T06:21:21;94410.25;;;26.34;55.76
6136;BME280;24008;42.664;23.372;2023-07-31T06:23:48;94405.69;;;27.37;51.79
6136;BME280;24008;42.664;23.372;2023-07-31T06:26:14;94445.22;;;28.61;48.61
6136;BME280;24008;42.664;23.372;2023-07-31T06:28:41;94452.94;;;29.64;46.52
6136;BME280;24008;42.664;23.372;2023-07-31T06:31:08;94445.63;;;30.36;44.24
6136;BME280;24008;42.664;23.372;2023-07-31T06:33:37;94453.41;;;30.71;42.59
6136;BME280;24008;42.664;23.372;2023-07-31T06:36:04;94454.59;;;31.33;41.77
6136;BME280;24008;42.664;23.372;2023-07-31T06:38:32;94455.19;;;31.25;41.57
6136;BME280;24008;42.664;23.372;2023-07-31T06:40:58;94439.50;;;30.51;41.90
6136;BME280;24008;42.664;23.372;2023-07-31T06:43:25;94460.28;;;29.72;43.80
6136;BME280;24008;42.664;23.372;2023-07-31T06:45:52;94463.75;;;29.58;44.55
6136;BME280;24008;42.664;23.372;2023-07-31T06:48:19;94396.53;;;29.81;43.17
6136;BME280;24008;42.664;23.372;2023-07-31T06:50:47;94482.47;;;30.61;42.98
6136;BME280;24008;42.664;23.372;2023-07-31T06:53:13;94471.44;;;31.03;41.34
6136;BME280;24008;42.664;23.372;2023-07-31T06:55:40;94316.22;;;29.68;41.42
6136;BME280;24008;42.664;23.372;2023-07-31T06:58:07;94450.00;;;29.96;42.88
6136;BME280;24008;42.664;23.372;2023-07-31T07:00:34;94461.00;;;30.14;42.75
6136;BME280;24008;42.664;23.372;2023-07-31T07:03:00;94464.53;;;30.63;42.27
6136;BME280;24008;42.664;23.372;2023-07-31T07:05:27;94454.81;;;30.98;40.57
6136;BME280;24008;42.664;23.372;2023-07-31T07:07:55;94471.09;;;31.15;40.06
6136;BME280;24008;42.664;23.372;2023-07-31T07:10:22;94420.78;;;30.96;39.58
6136;BME280;24008;42.664;23.372;2023-07-31T07:12:49;94474.41;;;31.65;39.51
6136;BME280;24008;42.664;23.372;2023-07-31T07:15:16;94470.97;;;31.93;39.15
6136;BME280;24008;42.664;23.372;2023-07-31T07:17:43;94471.53;;;32.14;38.69
6136;BME280;24008;42.664;23.372;2023-07-31T07:20:10;94472.06;;;32.40;37.47
6136;BME280;24008;42.664;23.372;2023-07-31T07:22:36;94397.28;;;32.34;37.69
6136;BME280;24008;42.664;23.372;2023-07-31T07:25:05;94471.94;;;32.92;36.70
6136;BME280;24008;42.664;23.372;2023-07-31T07:27:33;94461.69;;;32.86;36.79
6136;BME280;24008;42.664;23.372;2023-07-31T07:30:00;94476.06;;;32.99;36.45
6136;BME280;24008;42.664;23.372;2023-07-31T07:32:27;94473.59;;;32.46;36.76
6136;BME280;24008;42.664;23.372;2023-07-31T07:34:55;94476.63;;;31.81;38.10
6136;BME280;24008;42.664;23.372;2023-07-31T07:37:22;94482.81;;;30.34;40.14
6136;BME280;24008;42.664;23.372;2023-07-31T07:39:49;94466.13;;;29.39;42.25
6136;BME280;24008;42.664;23.372;2023-07-31T07:42:17;94486.38;;;29.18;43.15
6136;BME280;24008;42.664;23.372;2023-07-31T07:44:44;94484.22;;;28.90;44.63
6136;BME280;24008;42.664;23.372;2023-07-31T07:47:11;94470.56;;;29.28;43.51
6136;BME280;24008;42.664;23.372;2023-07-31T07:49:38;94482.91;;;30.14;42.54
6136;BME280;24008;42.664;23.372;2023-07-31T07:52:05;94294.47;;;30.06;40.38
6136;BME280;24008;42.664;23.372;2023-07-31T07:54:31;94496.25;;;31.41;38.65
6136;BME280;24008;42.664;23.372;2023-07-31T07:56:59;94489.66;;;30.95;40.01
6136;BME280;24008;42.664;23.372;2023-07-31T07:59:27;94482.13;;;31.56;39.88
6136;BME280;24008;42.664;23.372;2023-07-31T08:01:53;94481.44;;;32.03;38.00
6136;BME280;24008;42.664;23.372;2023-07-31T08:04:20;94469.66;;;32.19;37.75
6136;BME280;24008;42.664;23.372;2023-07-31T08:06:47;94478.22;;;32.35;37.11
6136;BME280;24008;42.664;23.372;2023-07-31T08:09:14;94481.56;;;32.17;36.82
6136;BME280;24008;42.664;23.372;2023-07-31T08:11:40;94486.94;;;31.49;37.09
6136;BME280;24008;42.664;23.372;2023-07-31T08:14:07;94483.13;;;31.65;37.83
6136;BME280;24008;42.664;23.372;2023-07-31T08:16:35;94438.53;;;32.11;36.87
6136;BME280;24008;42.664;23.372;2023-07-31T08:19:02;94488.28;;;32.33;36.72
6136;BME280;24008;42.664;23.372;2023-07-31T08:21:29;94452.03;;;31.23;38.05
6136;BME280;24008;42.664;23.372;2023-07-31T08:23:56;94487.38;;;31.90;38.31
6136;BME280;24008;42.664;23.372;2023-07-31T08:26:23;94483.09;;;32.47;36.92
6136;BME280;24008;42.664;23.372;2023-07-31T08:28:49;94463.50;;;32.72;36.54
6136;BME280;24008;42.664;23.372;2023-07-31T08:31:16;94479.19;;;32.63;36.30
6136;BME280;24008;42.664;23.372;2023-07-31T08:33:45;94482.16;;;32.80;36.08
6136;BME280;24008;42.664;23.372;2023-07-31T08:36:11;94479.88;;;33.30;36.04
6136;BME280;24008;42.664;23.372;2023-07-31T08:38:38;94479.66;;;33.59;35.01
6136;BME280;24008;42.664;23.372;2023-07-31T08:41:05;94411.53;;;32.95;34.61
6136;BME280;24008;42.664;23.372;2023-07-31T08:43:32;94481.94;;;33.14;35.78
6136;BME280;24008;42.664;23.372;2023-07-31T08:46:00;94415.56;;;32.92;35.55
6136;BME280;24008;42.664;23.372;2023-07-31T08:48:28;94478.75;;;33.82;33.55
6136;BME280;24008;42.664;23.372;2023-07-31T08:50:57;94485.94;;;33.82;33.83
6136;BME280;24008;42.664;23.372;2023-07-31T08:53:24;94422.16;;;33.59;33.29
6136;BME280;24008;42.664;23.372;2023-07-31T08:55:52;94474.09;;;33.93;33.22
6136;BME280;24008;42.664;23.372;2023-07-31T08:58:19;94483.25;;;34.14;33.84
6136;BME280;24008;42.664;23.372;2023-07-31T09:00:47;94481.56;;;33.21;34.22
6136;BME280;24008;42.664;23.372;2023-07-31T09:03:15;94484.19;;;32.65;34.84
6136;BME280;24008;42.664;23.372;2023-07-31T09:05:43;94450.47;;;32.51;35.74
6136;BME280;24008;42.664;23.372;2023-07-31T09:08:12;94476.66;;;33.14;34.09
6136;BME280;24008;42.664;23.372;2023-07-31T09:10:44;94473.72;;;33.67;34.27
6136;BME280;24008;42.664;23.372;2023-07-31T09:13:12;94434.03;;;33.62;34.02
6136;BME280;24008;42.664;23.372;2023-07-31T09:15:39;94466.25;;;34.15;33.89
6136;BME280;24008;42.664;23.372;2023-07-31T09:18:07;94470.31;;;34.26;33.08
6136;BME280;24008;42.664;23.372;2023-07-31T09:20:34;94471.53;;;34.70;32.39
6136;BME280;24008;42.664;23.372;2023-07-31T09:23:07;94445.84;;;34.29;31.98
6136;BME280;24008;42.664;23.372;2023-07-31T09:25:36;94452.31;;;34.51;31.87
6136;BME280;24008;42.664;23.372;2023-07-31T09:28:05;94472.50;;;34.74;31.66
6136;BME280;24008;42.664;23.372;2023-07-31T09:30:44;94460.94;;;35.06;30.64
6136;BME280;24008;42.664;23.372;2023-07-31T09:33:11;94435.97;;;34.44;31.09
6136;BME280;24008;42.664;23.372;2023-07-31T09:35:39;94463.06;;;34.68;31.57
6136;BME280;24008;42.664;23.372;2023-07-31T09:38:08;94461.41;;;34.72;31.08
6136;BME280;24008;42.664;23.372;2023-07-31T09:40:38;94461.78;;;34.79;30.77
6136;BME280;24008;42.664;23.372;2023-07-31T09:43:06;94434.63;;;34.05;31.57
6136;BME280;24008;42.664;23.372;2023-07-31T09:45:35;94443.16;;;33.05;32.78
6136;BME280;24008;42.664;23.372;2023-07-31T09:48:02;94416.63;;;32.91;33.57
6136;BME280;24008;42.664;23.372;2023-07-31T09:50:29;94419.59;;;33.54;32.65
6136;BME280;24008;42.664;23.372;2023-07-31T09:52:56;94445.41;;;34.22;32.57
6136;BME280;24008;42.664;23.372;2023-07-31T09:55:23;94423.00;;;33.41;32.49
6136;BME280;24008;42.664;23.372;2023-07-31T09:57:52;94445.03;;;33.55;34.09
6136;BME280;24008;42.664;23.372;2023-07-31T10:00:21;94446.38;;;33.85;33.15
6136;BME280;24008;42.664;23.372;2023-07-31T10:02:51;94445.41;;;34.22;33.32
6136;BME280;24008;42.664;23.372;2023-07-31T10:05:19;94450.94;;;34.40;31.60
6136;BME280;24008;42.664;23.372;2023-07-31T10:07:51;94419.00;;;33.44;32.76
6136;BME280;24008;42.664;23.372;2023-07-31T10:10:20;94414.63;;;32.22;35.01
6136;BME280;24008;42.664;23.372;2023-07-31T10:12:48;94420.06;;;31.54;35.39
6136;BME280;24008;42.664;23.372;2023-07-31T10:15:17;94381.38;;;31.05;35.48
6136;BME280;24008;42.664;23.372;2023-07-31T10:17:44;94449.13;;;31.25;35.44
6136;BME280;24008;42.664;23.372;2023-07-31T10:20:13;94443.94;;;30.65;36.75
6136;BME280;24008;42.664;23.372;2023-07-31T10:22:42;94446.63;;;30.55;38.14
6136;BME280;24008;42.664;23.372;2023-07-31T10:25:09;94445.84;;;30.99;37.76
6136;BME280;24008;42.664;23.372;2023-07-31T10:27:38;94435.00;;;30.61;37.02
6136;BME280;24008;42.664;23.372;2023-07-31T10:30:08;94426.78;;;30.03;37.84
6136;BME280;24008;42.664;23.372;2023-07-31T10:32:38;94369.50;;;29.45;38.69
6136;BME280;24008;42.664;23.372;2023-07-31T10:35:08;94415.19;;;29.99;38.33
6136;BME280;24008;42.664;23.372;2023-07-31T10:37:40;94387.78;;;30.05;38.17
6136;BME280;24008;42.664;23.372;2023-07-31T10:40:10;94404.19;;;29.77;38.29
6136;BME280;24008;42.664;23.372;2023-07-31T10:42:45;94399.75;;;30.32;39.01
6136;BME280;24008;42.664;23.372;2023-07-31T10:45:12;94425.56;;;31.57;36.18
6136;BME280;24008;42.664;23.372;2023-07-31T10:47:44;94411.31;;;32.35;34.33
6136;BME280;24008;42.664;23.372;2023-07-31T10:50:19;94416.78;;;32.14;34.67
6136;BME280;24008;42.664;23.372;2023-07-31T10:52:47;94379.06;;;32.70;34.19
6136;BME280;24008;42.664;23.372;2023-07-31T10:55:22;94382.75;;;33.07;33.07
6136;BME280;24008;42.664;23.372;2023-07-31T10:57:49;94407.75;;;32.82;33.97
6136;BME280;24008;42.664;23.372;2023-07-31T11:00:20;94398.47;;;33.17;32.51
6136;BME280;24008;42.664;23.372;2023-07-31T11:03:02;94407.44;;;33.53;32.71
6136;BME280;24008;42.664;23.372;2023-07-31T11:05:47;94399.22;;;32.66;32.39
6136;BME280;24008;42.664;23.372;2023-07-31T11:08:16;94398.22;;;32.62;33.19
6136;BME280;24008;42.664;23.372;2023-07-31T11:10:44;94400.13;;;32.19;33.40
6136;BME280;24008;42.664;23.372;2023-07-31T11:13:13;94400.34;;;31.41;34.70
6136;BME280;24008;42.664;23.372;2023-07-31T11:15:41;94343.81;;;29.86;36.53
6136;BME280;24008;42.664;23.372;2023-07-31T11:18:09;94385.69;;;30.02;36.49
6136;BME280;24008;42.664;23.372;2023-07-31T11:20:38;94399.59;;;30.18;36.10
6136;BME280;24008;42.664;23.372;2023-07-31T11:23:07;94350.38;;;29.98;36.08
6136;BME280;24008;42.664;23.372;2023-07-31T11:25:36;94376.19;;;30.51;37.12
6136;BME280;24008;42.664;23.372;2023-07-31T11:28:04;94353.53;;;30.50;36.20
6136;BME280;24008;42.664;23.372;2023-07-31T11:30:31;94369.22;;;30.21;35.31
6136;BME280;24008;42.664;23.372;2023-07-31T11:33:00;94389.19;;;29.67;36.23
6136;BME280;24008;42.664;23.372;2023-07-31T11:35:30;94264.81;;;28.71;37.07
6136;BME280;24008;42.664;23.372;2023-07-31T11:37:57;94405.81;;;29.48;37.16
6136;BME280;24008;42.664;23.372;2023-07-31T11:40:23;94355.78;;;29.32;37.41
6136;BME280;24008;42.664;23.372;2023-07-31T11:42:57;94338.97;;;29.13;37.85
6136;BME280;24008;42.664;23.372;2023-07-31T11:45:26;94393.19;;;29.45;37.47
6136;BME280;24008;42.664;23.372;2023-07-31T11:47:56;94359.50;;;29.21;37.47
6136;BME280;24008;42.664;23.372;2023-07-31T11:50:23;94327.38;;;29.14;38.46
6136;BME280;24008;42.664;23.372;2023-07-31T11:52:56;94242.47;;;28.58;37.75
6136;BME280;24008;42.664;23.372;2023-07-31T11:55:24;94086.56;;;27.46;38.44
6136;BME280;24008;42.664;23.372;2023-07-31T11:57:52;94330.03;;;29.04;37.92
6136;BME280;24008;42.664;23.372;2023-07-31T12:00:21;94285.31;;;28.63;38.49
6136;BME280;24008;42.664;23.372;2023-07-31T12:02:48;94378.19;;;29.10;38.36
6136;BME280;24008;42.664;23.372;2023-07-31T12:05:15;94352.41;;;28.96;38.48
6136;BME280;24008;42.664;23.372;2023-07-31T12:07:46;94296.38;;;28.91;38.43
6136;BME280;24008;42.664;23.372;2023-07-31T12:10:25;94375.75;;;29.69;37.85
6136;BME280;24008;42.664;23.372;2023-07-31T12:13:03;94319.41;;;29.60;37.17
6136;BME280;24008;42.664;23.372;2023-07-31T12:15:37;94340.63;;;29.99;37.51
6136;BME280;24008;42.664;23.372;2023-07-31T12:18:06;94352.88;;;30.29;36.51
6136;BME280;24008;42.664;23.372;2023-07-31T12:20:33;94364.53;;;30.13;36.42
6136;BME280;24008;42.664;23.372;2023-07-31T12:23:00;94367.28;;;29.77;37.62
6136;BME280;24008;42.664;23.372;2023-07-31T12:25:33;94331.00;;;29.59;37.25
6136;BME280;24008;42.664;23.372;2023-07-31T12:28:06;94303.16;;;29.32;37.58
6136;BME280;24008;42.664;23.372;2023-07-31T12:30:38;94146.25;;;28.31;37.71
6136;BME280;24008;42.664;23.372;2023-07-31T12:33:07;94357.09;;;29.50;37.36
6136;BME280;24008;42.664;23.372;2023-07-31T12:35:37;94319.25;;;29.06;38.47
6136;BME280;24008;42.664;23.372;2023-07-31T12:38:04;94355.81;;;29.12;39.04
6136;BME280;24008;42.664;23.372;2023-07-31T12:40:35;94352.66;;;29.05;39.63
6136;BME280;24008;42.664;23.372;2023-07-31T12:43:02;94357.66;;;28.86;38.79
6136;BME280;24008;42.664;23.372;2023-07-31T12:45:30;94320.56;;;28.57;39.13
6136;BME280;24008;42.664;23.372;2023-07-31T12:47:57;94354.47;;;28.64;39.31
6136;BME280;24008;42.664;23.372;2023-07-31T12:50:24;94354.25;;;28.81;40.25
6136;BME280;24008;42.664;23.372;2023-07-31T12:52:51;94347.94;;;28.92;38.96
6136;BME280;24008;42.664;23.372;2023-07-31T12:55:18;94308.47;;;28.72;39.18
6136;BME280;24008;42.664;23.372;2023-07-31T12:57:46;94337.38;;;28.77;38.98
6136;BME280;24008;42.664;23.372;2023-07-31T13:00:13;94327.66;;;28.77;39.64
6136;BME280;24008;42.664;23.372;2023-07-31T13:02:40;94298.47;;;28.58;38.10